Time;durP1;ratioP1;P1;durP2;ratioP2;P2;SDS_P1;SDS_P2;PMS_P1;PMS_P2;Temp;Humidity;BMP_temperature;BMP_pressure;BME280_temperature;BME280_humidity;BME280_pressure;Samples;Min_cycle;Max_cycle;Signal;HPM_P1;HPM_P2
2024/02/09 00:00:17;;;;;;;;;;;;;;;10.32;49.05;98682.88;4938668;28;98576;-66
2024/02/09 00:02:43;;;;;;;;;;;;;;;10.32;49.29;98663.25;4945227;28;98563;-70
2024/02/09 00:05:13;;;;;;;;;;;;;;;10.34;49.53;98671.03;4957897;27;100281;-70
2024/02/09 00:07:40;;;;;;;;;;;;;;;10.32;48.99;98668.63;4933646;28;98082;-66
2024/02/09 00:10:06;;;;;;;;;;;;;;;10.32;49.09;98655.16;4954218;28;98854;-70
2024/02/09 00:12:34;;;;;;;;;;;;;;;10.31;49.34;98658.97;4941542;28;105976;-70
2024/02/09 00:15:06;;;;;;;;;;;;;;;10.30;49.09;98663.56;4943191;28;98523;-66
2024/02/09 00:17:32;;;;;;;;;;;;;;;10.30;49.14;98668.16;4951754;28;98295;-66
2024/02/09 00:19:59;;;;;;;;;;;;;;;10.30;48.97;98662.78;4940314;28;98261;-66
2024/02/09 00:22:25;;;;;;;;;;;;;;;10.29;49.07;98672.72;4922579;28;97883;-70
2024/02/09 00:24:51;;;;;;;;;;;;;;;10.29;48.92;98688.09;4937732;28;107533;-65
2024/02/09 00:27:18;;;;;;;;;;;;;;;10.28;48.90;98698.06;4957498;28;98240;-70
2024/02/09 00:29:44;;;;;;;;;;;;;;;10.30;49.12;98681.63;4908775;28;98039;-70
2024/02/09 00:32:14;;;;;;;;;;;;;;;10.28;48.82;98664.97;4933092;28;98738;-69
2024/02/09 00:34:40;;;;;;;;;;;;;;;10.29;48.88;98664.66;4937113;28;99535;-69
2024/02/09 00:37:06;;;;;;;;;;;;;;;10.29;49.15;98666.53;4949444;28;99081;-70
2024/02/09 00:39:35;;;;;;;;;;;;;;;10.27;49.28;98656.09;4923700;28;98015;-65
2024/02/09 00:42:04;;;;;;;;;;;;;;;10.27;49.60;98649.91;4940866;28;99222;-65
2024/02/09 00:44:33;;;;;;;;;;;;;;;10.28;49.34;98654.97;4937280;28;99608;-70
2024/02/09 00:47:01;;;;;;;;;;;;;;;10.27;48.88;98639.94;4964172;27;98320;-70
2024/02/09 00:49:27;;;;;;;;;;;;;;;10.27;49.24;98645.31;4923349;28;100085;-65
2024/02/09 00:51:55;;;;;;;;;;;;;;;10.27;48.95;98647.22;4945966;28;97863;-70
2024/02/09 00:54:21;;;;;;;;;;;;;;;10.26;49.25;98649.13;4951236;27;97977;-69
2024/02/09 00:56:47;;;;;;;;;;;;;;;10.27;49.19;98645.31;4937850;28;98406;-66
2024/02/09 00:59:15;;;;;;;;;;;;;;;10.26;49.32;98645.66;4909574;28;98278;-65
2024/02/09 01:01:41;;;;;;;;;;;;;;;10.26;49.52;98637.56;4909481;28;99112;-65
2024/02/09 01:04:07;;;;;;;;;;;;;;;10.26;48.90;98640.25;4945831;28;98030;-70
2024/02/09 01:06:34;;;;;;;;;;;;;;;10.25;49.17;98644.03;4934464;28;98344;-69
2024/02/09 01:09:00;;;;;;;;;;;;;;;10.26;48.94;98642.94;4950147;28;98068;-69
2024/02/09 01:11:30;;;;;;;;;;;;;;;10.26;49.08;98640.25;4939056;28;100084;-69
2024/02/09 02:46:51;;;;;;;;;;;;;;;10.04;48.89;98541.44;4968922;27;97991;-69
2024/02/09 03:05:45;;;;;;;;;;;;;;;10.01;48.82;98515.94;4928479;28;98839;-69
2024/02/09 03:08:11;;;;;;;;;;;;;;;10.02;49.18;98514.84;4922895;28;105464;-65
2024/02/09 03:10:37;;;;;;;;;;;;;;;10.01;48.80;98512.44;4936947;28;98269;-65
2024/02/09 03:13:07;;;;;;;;;;;;;;;10.02;49.20;98514.03;4953495;28;98191;-65
2024/02/09 03:15:34;;;;;;;;;;;;;;;10.02;49.06;98512.16;4938127;28;98194;-66
2024/02/09 03:18:04;;;;;;;;;;;;;;;10.01;49.25;98510.53;4944052;28;98339;-65
2024/02/09 03:20:34;;;;;;;;;;;;;;;10.00;49.47;98506.28;4953913;28;98475;-70
2024/02/09 03:23:03;;;;;;;;;;;;;;;10.00;48.77;98498.19;4925159;28;99566;-70
2024/02/09 03:25:30;;;;;;;;;;;;;;;10.00;49.13;98500.88;4955862;28;101840;-70
2024/02/09 03:27:56;;;;;;;;;;;;;;;10.00;48.81;98498.19;4959251;28;98113;-66
2024/02/09 03:30:22;;;;;;;;;;;;;;;10.00;48.82;98498.19;4962260;28;97922;-65
2024/02/09 03:32:50;;;;;;;;;;;;;;;10.01;49.00;98494.38;4937836;28;99124;-65
2024/02/09 03:35:17;;;;;;;;;;;;;;;10.00;49.30;98490.13;4940113;28;98995;-66
2024/02/09 03:37:44;;;;;;;;;;;;;;;10.00;49.13;98495.50;4943594;28;98604;-70
2024/02/09 03:40:12;;;;;;;;;;;;;;;9.99;49.10;98485.84;4926035;28;98129;-70
2024/02/09 03:42:38;;;;;;;;;;;;;;;10.01;49.25;98490.91;4926012;28;99604;-70
2024/02/09 03:45:06;;;;;;;;;;;;;;;10.00;49.28;98498.19;4903863;28;127907;-70
2024/02/09 03:47:32;;;;;;;;;;;;;;;10.00;48.84;98506.28;4958625;28;98533;-66
2024/02/09 03:49:58;;;;;;;;;;;;;;;10.00;49.37;98503.56;4935944;28;97987;-66
2024/02/09 03:52:25;;;;;;;;;;;;;;;10.01;49.06;98496.28;4942713;28;98812;-70
2024/02/09 03:54:51;;;;;;;;;;;;;;;10.01;49.44;98496.28;4972723;27;99702;-70
2024/02/09 03:57:21;;;;;;;;;;;;;;;10.01;49.49;98499.00;4930159;28;98336;-70
2024/02/09 03:59:47;;;;;;;;;;;;;;;10.01;49.08;98494.38;4942789;28;98046;-66
2024/02/09 04:02:13;;;;;;;;;;;;;;;10.00;49.12;98487.44;4933497;28;98487;-66
2024/02/09 04:04:39;;;;;;;;;;;;;;;10.00;49.49;98490.13;4949562;28;98101;-66
2024/02/09 04:07:06;;;;;;;;;;;;;;;10.00;49.11;98490.13;4943180;28;99004;-66
2024/02/09 04:09:35;;;;;;;;;;;;;;;10.00;48.82;98475.88;4962832;28;98253;-71
2024/02/09 04:12:02;;;;;;;;;;;;;;;10.00;48.86;98478.56;4946415;28;98091;-66
2024/02/09 04:14:28;;;;;;;;;;;;;;;10.00;49.14;98475.88;4909178;28;100246;-70
2024/02/09 04:16:55;;;;;;;;;;;;;;;10.00;48.97;98467.78;4964633;28;98639;-70
2024/02/09 04:19:21;;;;;;;;;;;;;;;10.00;48.85;98465.91;4955740;28;97995;-66
2024/02/09 04:21:47;;;;;;;;;;;;;;;10.00;49.17;98463.19;4929156;28;98223;-70
2024/02/09 04:24:19;;;;;;;;;;;;;;;9.99;49.26;98464.31;4959397;28;121356;-66
2024/02/09 04:26:48;;;;;;;;;;;;;;;10.00;49.09;98465.09;4953260;28;99568;-65
2024/02/09 04:29:15;;;;;;;;;;;;;;;10.00;49.07;98460.50;4945092;28;98281;-66
2024/02/09 04:31:50;;;;;;;;;;;;;;;10.00;49.18;98451.66;4939003;28;98321;-66
2024/02/09 04:34:16;;;;;;;;;;;;;;;10.00;49.15;98454.34;4941515;28;98262;-66
2024/02/09 04:36:44;;;;;;;;;;;;;;;10.00;48.83;98451.66;4957463;28;98093;-66
2024/02/09 04:39:10;;;;;;;;;;;;;;;10.01;49.41;98445.16;4907920;28;98067;-70
2024/02/09 04:41:44;;;;;;;;;;;;;;;10.03;49.41;98437.56;4954276;27;97874;-70
2024/02/09 04:44:10;;;;;;;;;;;;;;;10.09;49.05;98426.31;4937141;28;100295;-67
2024/02/09 04:46:36;;;;;;;;;;;;;;;10.18;49.18;98417.47;4930640;28;98583;-70
2024/02/09 04:49:06;;;;;;;;;;;;;;;10.22;49.25;98413.88;4959689;28;98111;-66
2024/02/09 04:51:35;;;;;;;;;;;;;;;10.28;49.25;98417.22;4957752;27;98528;-70
2024/02/09 04:54:01;;;;;;;;;;;;;;;10.32;49.03;98402.03;4926600;28;99209;-70
2024/02/09 04:56:32;;;;;;;;;;;;;;;10.35;49.08;98406.78;4938979;28;105057;-70
2024/02/09 04:59:04;;;;;;;;;;;;;;;10.39;49.03;98396.97;4950141;28;98046;-70
2024/02/09 05:01:32;;;;;;;;;;;;;;;10.41;49.50;98399.31;4953214;28;99457;-66
2024/02/09 05:03:59;;;;;;;;;;;;;;;10.42;49.04;98393.66;4951942;28;98209;-65
2024/02/09 05:06:26;;;;;;;;;;;;;;;10.44;49.23;98396.00;4954416;27;98971;-66
2024/02/09 05:08:53;;;;;;;;;;;;;;;10.46;49.36;98399.97;4925910;28;98525;-66
2024/02/09 05:11:21;;;;;;;;;;;;;;;10.46;49.13;98394.59;4927719;28;100037;-70
2024/02/09 05:13:50;;;;;;;;;;;;;;;10.48;49.18;98388.88;4944152;28;98808;-70
2024/02/09 05:16:17;;;;;;;;;;;;;;;10.48;49.50;98386.97;4935268;28;99752;-65
2024/02/09 05:18:43;;;;;;;;;;;;;;;10.49;49.25;98382.38;4951642;28;99530;-70
2024/02/09 05:21:09;;;;;;;;;;;;;;;10.49;49.74;98387.75;4949595;28;99150;-70
2024/02/09 05:23:35;;;;;;;;;;;;;;;10.49;49.26;98383.19;4949176;28;98038;-66
2024/02/09 05:26:01;;;;;;;;;;;;;;;10.50;49.58;98375.91;4939574;28;98606;-71
2024/02/09 05:28:27;;;;;;;;;;;;;;;10.50;49.08;98373.22;4949864;28;116938;-70
2024/02/09 05:30:53;;;;;;;;;;;;;;;10.51;49.62;98366.72;4928348;28;98170;-71
2024/02/09 05:33:19;;;;;;;;;;;;;;;10.50;49.36;98360.53;4922089;28;130379;-71
2024/02/09 05:35:46;;;;;;;;;;;;;;;10.50;49.33;98357.03;4951576;28;98276;-66
2024/02/09 05:38:12;;;;;;;;;;;;;;;10.49;49.11;98353.56;4937406;28;98215;-72
2024/02/09 05:40:38;;;;;;;;;;;;;;;10.50;49.39;98360.53;4918856;28;98289;-71
2024/02/09 05:43:04;;;;;;;;;;;;;;;10.51;49.12;98355.94;4952935;28;99707;-66
2024/02/09 05:45:32;;;;;;;;;;;;;;;10.49;49.42;98352.75;4937894;28;97927;-66
2024/02/09 05:47:58;;;;;;;;;;;;;;;10.49;49.29;98350.88;4962770;27;98771;-66
2024/02/09 05:50:25;;;;;;;;;;;;;;;10.48;49.03;98349.25;4919506;28;99429;-71
2024/02/09 05:52:53;;;;;;;;;;;;;;;10.48;49.58;98343.88;4954782;28;99565;-66
2024/02/09 05:55:20;;;;;;;;;;;;;;;10.48;48.94;98338.50;4907177;28;99461;-72
2024/02/09 05:57:46;;;;;;;;;;;;;;;10.48;49.41;98333.09;4933559;28;99003;-67
2024/02/09 06:00:14;;;;;;;;;;;;;;;10.47;48.88;98334.22;4949024;28;98222;-72
2024/02/09 06:02:41;;;;;;;;;;;;;;;10.47;49.19;98331.53;4953388;28;98164;-71
2024/02/09 06:05:07;;;;;;;;;;;;;;;10.47;48.94;98331.53;4947429;28;103665;-66
2024/02/09 06:07:34;;;;;;;;;;;;;;;10.48;49.09;98321.53;4930593;28;98131;-71
2024/02/09 06:10:00;;;;;;;;;;;;;;;10.48;49.53;98322.34;4931484;28;100533;-66
2024/02/09 06:12:26;;;;;;;;;;;;;;;10.47;48.99;98323.44;4960594;27;99187;-66
2024/02/09 06:14:59;;;;;;;;;;;;;;;10.46;48.86;98324.56;4946871;28;99016;-71
2024/02/09 06:17:25;;;;;;;;;;;;;;;10.47;49.25;98328.03;4965194;27;98420;-68
2024/02/09 06:19:51;;;;;;;;;;;;;;;10.47;49.10;98325.34;4961209;27;99843;-71
2024/02/09 06:22:17;;;;;;;;;;;;;;;10.47;49.39;98320.75;4954279;28;117583;-71
2024/02/09 06:24:43;;;;;;;;;;;;;;;10.47;49.12;98317.28;4936052;28;129938;-66
2024/02/09 06:27:09;;;;;;;;;;;;;;;10.47;49.35;98319.97;4923596;28;119856;-71
2024/02/09 06:29:38;;;;;;;;;;;;;;;10.47;49.34;98314.56;4956164;28;105392;-73
2024/02/09 06:32:05;;;;;;;;;;;;;;;10.47;48.97;98312.69;4917098;28;98330;-67
2024/02/09 06:34:31;;;;;;;;;;;;;;;10.46;49.11;98316.47;4930977;28;97961;-71
2024/02/09 06:36:57;;;;;;;;;;;;;;;10.48;49.46;98319.63;4933859;28;98536;-66
2024/02/09 06:39:23;;;;;;;;;;;;;;;10.47;49.55;98317.28;4932107;28;98856;-66
2024/02/09 06:41:49;;;;;;;;;;;;;;;10.48;49.32;98319.63;4903058;28;98083;-67
2024/02/09 06:44:18;;;;;;;;;;;;;;;10.49;49.26;98312.34;4949767;28;99155;-71
2024/02/09 06:46:45;;;;;;;;;;;;;;;10.48;48.93;98308.06;4929733;28;98137;-66
2024/02/09 06:49:11;;;;;;;;;;;;;;;10.49;49.06;98310.47;4921289;28;98319;-67
2024/02/09 06:51:37;;;;;;;;;;;;;;;10.51;49.36;98305.53;4921007;28;98416;-71
2024/02/09 06:54:03;;;;;;;;;;;;;;;10.52;49.29;98306.31;4920809;28;98335;-71
2024/02/09 06:56:29;;;;;;;;;;;;;;;10.51;49.07;98299.38;4951606;28;98852;-66
2024/02/09 06:58:58;;;;;;;;;;;;;;;10.53;49.31;98302.50;4956448;28;99436;-66
2024/02/09 07:01:24;;;;;;;;;;;;;;;10.53;49.34;98302.50;4934299;28;97877;-66
2024/02/09 07:03:52;;;;;;;;;;;;;;;10.54;48.96;98309.50;4907794;28;98298;-66
2024/02/09 07:06:22;;;;;;;;;;;;;;;10.55;49.20;98313.78;4957685;28;98577;-71
2024/02/09 07:08:52;;;;;;;;;;;;;;;10.55;49.44;98303.78;4918440;28;98479;-66
2024/02/09 07:11:18;;;;;;;;;;;;;;;10.57;48.80;98301.59;4946758;28;98298;-70
2024/02/09 07:13:46;;;;;;;;;;;;;;;10.58;49.31;98305.06;4954765;28;98167;-66
2024/02/09 07:16:12;;;;;;;;;;;;;;;10.60;49.18;98302.03;4921024;28;98422;-71
2024/02/09 07:18:42;;;;;;;;;;;;;;;10.60;48.94;98297.44;4936285;28;127040;-66
2024/02/09 07:21:15;;;;;;;;;;;;;;;10.62;49.40;98295.22;4943084;28;98504;-66
2024/02/09 07:23:42;;;;;;;;;;;;;;;10.64;49.22;98293.00;4947881;28;99067;-66
2024/02/09 07:26:08;;;;;;;;;;;;;;;10.66;49.34;98298.09;4934347;28;98269;-71
2024/02/09 07:28:35;;;;;;;;;;;;;;;10.67;49.29;98291.56;4951018;28;98233;-66
2024/02/09 07:31:01;;;;;;;;;;;;;;;10.68;49.19;98291.25;4923270;28;98589;-66
2024/02/09 07:33:27;;;;;;;;;;;;;;;10.71;49.07;98297.91;4952029;28;99759;-71
2024/02/09 07:35:53;;;;;;;;;;;;;;;10.72;48.98;98292.19;4922008;28;98069;-66
2024/02/09 07:38:20;;;;;;;;;;;;;;;10.74;49.26;98289.97;4908648;28;100447;-72
2024/02/09 07:40:46;;;;;;;;;;;;;;;10.76;48.86;98295.03;4955697;28;98157;-71
2024/02/09 07:43:12;;;;;;;;;;;;;;;10.78;48.87;98293.63;4964654;27;98176;-71
2024/02/09 07:45:38;;;;;;;;;;;;;;;10.81;49.15;98281.41;4963963;27;98461;-67
2024/02/09 07:48:05;;;;;;;;;;;;;;;10.84;48.96;98282.66;4936143;28;98877;-66
2024/02/09 07:50:31;;;;;;;;;;;;;;;10.86;49.03;98283.94;4925423;28;98459;-71
2024/02/09 07:52:57;;;;;;;;;;;;;;;10.89;48.85;98282.50;4945244;28;127502;-71
2024/02/09 07:55:22;;;;;;;;;;;;;;;10.91;48.88;98281.03;4920195;28;98336;-71
2024/02/09 07:57:49;;;;;;;;;;;;;;;10.93;49.29;98276.13;4941505;28;104315;-71
2024/02/09 08:00:17;;;;;;;;;;;;;;;10.93;49.21;98276.13;4944659;27;98604;-67
2024/02/09 08:02:43;;;;;;;;;;;;;;;10.97;49.38;98266.28;4945673;28;98094;-71
2024/02/09 08:05:17;;;;;;;;;;;;;;;10.98;48.87;98267.09;4918218;28;98165;-67
2024/02/09 08:07:47;;;;;;;;;;;;;;;11.00;48.98;98268.34;4937959;28;100737;-67
2024/02/09 08:10:13;;;;;;;;;;;;;;;11.02;49.25;98266.09;4936830;28;100235;-67
2024/02/09 08:12:40;;;;;;;;;;;;;;;11.05;48.91;98265.47;4948842;28;104126;-71
2024/02/09 08:15:10;;;;;;;;;;;;;;;11.07;48.87;98263.22;4937313;28;98670;-66
2024/02/09 08:17:39;;;;;;;;;;;;;;;11.11;49.09;98265.28;4932865;28;98416;-70
2024/02/09 08:20:06;;;;;;;;;;;;;;;11.11;49.09;98263.38;4935444;28;99686;-66
2024/02/09 08:22:34;;;;;;;;;;;;;;;11.15;49.18;98261.59;4953363;28;97907;-67
2024/02/09 08:25:00;;;;;;;;;;;;;;;11.17;49.03;98261.31;4950254;28;98825;-66
2024/02/09 08:27:26;;;;;;;;;;;;;;;11.22;49.20;98259.19;4903324;28;98626;-66
2024/02/09 08:29:56;;;;;;;;;;;;;;;11.27;49.01;98261.72;4929218;28;98265;-70
2024/02/09 08:32:23;;;;;;;;;;;;;;;11.33;48.99;98261.56;4931850;28;98330;-66
2024/02/09 08:34:53;;;;;;;;;;;;;;;11.38;48.96;98261.34;4929151;28;98186;-71
2024/02/09 08:37:24;;;;;;;;;;;;;;;11.45;48.89;98259.72;4927469;28;98603;-66
2024/02/09 08:39:50;;;;;;;;;;;;;;;11.53;48.81;98263.50;4935114;28;98941;-71
2024/02/09 08:42:16;;;;;;;;;;;;;;;11.61;48.79;98268.03;4935814;28;98375;-71
2024/02/09 08:44:43;;;;;;;;;;;;;;;11.66;48.83;98262.44;4947658;28;98706;-67
2024/02/09 08:47:12;;;;;;;;;;;;;;;11.73;49.12;98261.94;4959236;27;98688;-66
2024/02/09 08:49:39;;;;;;;;;;;;;;;11.82;48.74;98265.38;4916910;28;98347;-71
2024/02/09 08:52:05;;;;;;;;;;;;;;;11.90;48.67;98261.06;4938035;28;99188;-67
2024/02/09 08:54:32;;;;;;;;;;;;;;;11.96;48.73;98263.25;4935316;28;98314;-66
2024/02/09 08:56:59;;;;;;;;;;;;;;;12.05;48.67;98260.47;4932671;28;99455;-71
2024/02/09 08:59:25;;;;;;;;;;;;;;;12.14;48.39;98258.47;4938627;28;98734;-66
2024/02/09 09:01:51;;;;;;;;;;;;;;;12.24;48.54;98249.97;4931449;28;123265;-71
2024/02/09 09:04:20;;;;;;;;;;;;;;;12.33;48.87;98246.41;4936000;28;102788;-71
2024/02/09 09:06:46;;;;;;;;;;;;;;;12.41;48.48;98248.25;4948104;28;98486;-71
2024/02/09 09:09:14;;;;;;;;;;;;;;;12.47;48.55;98253.13;4901628;28;127830;-71
2024/02/09 09:11:41;;;;;;;;;;;;;;;12.51;48.65;98247.84;4934423;28;98264;-67
2024/02/09 09:14:10;;;;;;;;;;;;;;;12.56;48.66;98252.25;4945653;28;98309;-67
2024/02/09 09:16:39;;;;;;;;;;;;;;;12.61;48.40;98241.22;4938544;28;99376;-67
2024/02/09 09:19:08;;;;;;;;;;;;;;;12.67;48.42;98245.28;4918629;28;98429;-71
2024/02/09 09:21:37;;;;;;;;;;;;;;;12.70;48.51;98248.13;4935902;28;99060;-71
2024/02/09 09:24:03;;;;;;;;;;;;;;;12.75;48.75;98244.41;4918996;28;98660;-67
2024/02/09 09:26:30;;;;;;;;;;;;;;;12.80;48.78;98240.69;4933292;28;98567;-71
2024/02/09 09:28:56;;;;;;;;;;;;;;;12.89;48.56;98244.91;4950654;28;98240;-71
2024/02/09 09:31:23;;;;;;;;;;;;;;;12.95;48.42;98251.66;4941908;28;98779;-67
2024/02/09 09:33:49;;;;;;;;;;;;;;;13.01;48.28;98244.91;4925367;28;98219;-71
2024/02/09 09:36:15;;;;;;;;;;;;;;;13.07;48.51;98248.16;4933900;28;98477;-68
2024/02/09 09:38:42;;;;;;;;;;;;;;;13.15;48.68;98246.50;4905152;28;100250;-67
2024/02/09 09:41:09;;;;;;;;;;;;;;;13.25;48.71;98251.50;4951166;28;98274;-67
2024/02/09 09:43:35;;;;;;;;;;;;;;;13.37;48.22;98250.69;4936518;28;98283;-71
2024/02/09 09:46:01;;;;;;;;;;;;;;;13.42;48.32;98245.84;4897943;28;98547;-67
2024/02/09 09:48:27;;;;;;;;;;;;;;;13.46;48.45;98249.44;4948870;28;99414;-71
2024/02/09 09:50:54;;;;;;;;;;;;;;;13.49;48.69;98243.34;4936130;28;98094;-67
2024/02/09 09:53:27;;;;;;;;;;;;;;;13.48;48.58;98235.59;4934349;28;98957;-71
2024/02/09 09:55:53;;;;;;;;;;;;;;;13.48;48.81;98238.31;4932126;28;98365;-67
2024/02/09 09:58:22;;;;;;;;;;;;;;;13.48;48.67;98241.78;4953750;28;115164;-67
2024/02/09 10:00:49;;;;;;;;;;;;;;;13.48;48.83;98239.09;4930352;28;112894;-72
2024/02/09 10:03:16;;;;;;;;;;;;;;;13.48;48.78;98239.09;4939461;28;103113;-67
2024/02/09 10:05:44;;;;;;;;;;;;;;;13.46;48.97;98241.31;4954773;28;97930;-66
2024/02/09 10:08:10;;;;;;;;;;;;;;;13.47;48.56;98236.69;4933520;28;99091;-67
2024/02/09 10:10:37;;;;;;;;;;;;;;;13.49;49.00;98234.47;4946021;28;99429;-67
2024/02/09 10:13:11;;;;;;;;;;;;;;;13.51;49.04;98238.38;4937659;28;98430;-71
2024/02/09 10:15:38;;;;;;;;;;;;;;;13.54;49.00;98236.13;4935712;28;98211;-67
2024/02/09 10:18:04;;;;;;;;;;;;;;;13.58;48.68;98226.22;4909833;28;98050;-67
2024/02/09 10:20:30;;;;;;;;;;;;;;;13.62;48.69;98235.22;4965077;27;109136;-67
2024/02/09 10:22:56;;;;;;;;;;;;;;;13.63;48.88;98234.09;4940319;28;117725;-67
2024/02/09 10:25:23;;;;;;;;;;;;;;;13.66;48.50;98233.41;4951181;28;98195;-71
2024/02/09 10:27:53;;;;;;;;;;;;;;;13.68;48.60;98231.94;4924460;28;98328;-66
2024/02/09 10:30:19;;;;;;;;;;;;;;;13.68;48.71;98221.13;4940092;28;99074;-67
2024/02/09 10:32:45;;;;;;;;;;;;;;;13.70;48.78;98223.47;4954459;28;98298;-67
2024/02/09 10:35:11;;;;;;;;;;;;;;;13.72;48.72;98230.13;4942163;28;98304;-67
2024/02/09 10:37:38;;;;;;;;;;;;;;;13.75;48.98;98226.75;4958315;28;97955;-70
2024/02/09 10:40:06;;;;;;;;;;;;;;;13.79;48.59;98228.75;4940383;28;99680;-70
2024/02/09 10:42:33;;;;;;;;;;;;;;;13.82;48.54;98226.16;4957962;28;98426;-72
2024/02/09 10:44:59;;;;;;;;;;;;;;;13.85;48.90;98220.06;4953951;28;98284;-67
2024/02/09 10:47:26;;;;;;;;;;;;;;;13.87;48.60;98227.81;4922103;28;100269;-71
2024/02/09 10:49:54;;;;;;;;;;;;;;;13.87;48.96;98217.81;4941967;28;99146;-71
2024/02/09 10:52:20;;;;;;;;;;;;;;;13.87;48.72;98227.81;4936360;28;98678;-67
2024/02/09 10:54:49;;;;;;;;;;;;;;;13.86;48.68;98227.03;4924280;28;98501;-71
2024/02/09 10:57:15;;;;;;;;;;;;;;;13.84;49.01;98231.25;4927018;28;98102;-67
2024/02/09 10:59:42;;;;;;;;;;;;;;;13.83;49.06;98227.72;4956966;28;99256;-71
2024/02/09 11:02:08;;;;;;;;;;;;;;;13.82;48.74;98212.63;4947831;28;98025;-67
2024/02/09 11:04:35;;;;;;;;;;;;;;;13.83;48.84;98224.22;4939165;28;98309;-67
2024/02/09 11:07:01;;;;;;;;;;;;;;;13.85;48.79;98216.56;4933617;28;102404;-66
2024/02/09 11:09:30;;;;;;;;;;;;;;;13.87;49.15;98220.53;4920841;28;108164;-66
2024/02/09 11:12:04;;;;;;;;;;;;;;;13.92;48.71;98220.28;4920858;28;98475;-66
2024/02/09 11:14:32;;;;;;;;;;;;;;;13.91;48.77;98223.31;4925675;28;98426;-67
2024/02/09 11:17:02;;;;;;;;;;;;;;;13.91;48.82;98209.75;4924931;28;100039;-70
2024/02/09 11:19:28;;;;;;;;;;;;;;;13.93;48.75;98205.59;4917961;28;100667;-67
2024/02/09 11:21:57;;;;;;;;;;;;;;;13.98;49.05;98202.63;4959421;28;98280;-67
2024/02/09 11:24:27;;;;;;;;;;;;;;;14.09;49.07;98210.28;4921322;28;98259;-67
2024/02/09 11:26:53;;;;;;;;;;;;;;;14.17;48.85;98212.06;4958403;28;98146;-71
2024/02/09 11:29:19;;;;;;;;;;;;;;;14.26;48.78;98204.56;4957023;28;100554;-71
2024/02/09 11:32:01;;;;;;;;;;;;;;;14.33;48.47;98206.69;4916423;28;98271;-67
2024/02/09 11:34:28;;;;;;;;;;;;;;;14.47;48.73;98215.19;4943774;28;98103;-71
2024/02/09 11:37:00;;;;;;;;;;;;;;;14.63;48.35;98207.91;4955081;28;98120;-66
2024/02/09 11:39:26;;;;;;;;;;;;;;;14.76;48.19;98202.41;4954524;28;98421;-70
2024/02/09 11:41:53;;;;;;;;;;;;;;;14.81;48.67;98202.13;4922406;28;98293;-70
2024/02/09 11:44:19;;;;;;;;;;;;;;;14.89;48.25;98195.75;4955452;28;98302;-67
2024/02/09 11:46:45;;;;;;;;;;;;;;;14.98;48.19;98194.44;4940183;28;97988;-68
2024/02/09 11:49:12;;;;;;;;;;;;;;;15.03;48.46;98195.31;4959290;28;98283;-66
2024/02/09 11:51:38;;;;;;;;;;;;;;;15.13;48.61;98184.72;4927107;28;98395;-66
2024/02/09 11:54:08;;;;;;;;;;;;;;;15.25;48.48;98186.56;4926476;28;118500;-66
2024/02/09 11:56:35;;;;;;;;;;;;;;;15.37;48.21;98186.44;4938213;28;98515;-67
2024/02/09 11:59:03;;;;;;;;;;;;;;;15.40;48.34;98185.72;4969622;27;99420;-66
2024/02/09 12:01:29;;;;;;;;;;;;;;;15.42;48.35;98185.38;4950608;28;98619;-70
2024/02/09 12:03:56;;;;;;;;;;;;;;;15.45;48.40;98185.44;4936250;28;98402;-70
2024/02/09 12:06:22;;;;;;;;;;;;;;;15.45;48.37;98171.88;4953676;28;102655;-72
2024/02/09 12:08:51;;;;;;;;;;;;;;;15.47;48.60;98190.50;4939179;28;98551;-70
2024/02/09 12:11:20;;;;;;;;;;;;;;;15.47;48.44;98183.16;4923646;28;98176;-66
2024/02/09 12:13:47;;;;;;;;;;;;;;;15.51;48.66;98185.16;4953819;28;99872;-71
2024/02/09 12:16:15;;;;;;;;;;;;;;;15.54;48.68;98184.47;4936409;28;116328;-71
2024/02/09 12:18:54;;;;;;;;;;;;;;;15.58;48.55;98182.63;4953241;28;98885;-66
2024/02/09 12:21:20;;;;;;;;;;;;;;;15.64;48.54;98183.91;4942366;28;98141;-67
2024/02/09 12:23:46;;;;;;;;;;;;;;;15.68;48.53;98182.09;4941501;28;98358;-66
2024/02/09 12:26:14;;;;;;;;;;;;;;;15.72;48.56;98185.69;4923847;28;99802;-67
2024/02/09 12:28:41;;;;;;;;;;;;;;;15.78;48.40;98183.44;4922922;28;127020;-66
2024/02/09 12:31:09;;;;;;;;;;;;;;;15.84;48.51;98185.53;4933807;28;98287;-66
2024/02/09 12:33:45;;;;;;;;;;;;;;;15.87;48.38;98176.66;4968543;27;117509;-70
2024/02/09 12:36:13;;;;;;;;;;;;;;;15.91;48.58;98174.78;4949893;28;98366;-66
2024/02/09 12:38:42;;;;;;;;;;;;;;;15.94;48.46;98187.66;4960859;27;97964;-66
2024/02/09 12:41:08;;;;;;;;;;;;;;;15.95;48.65;98188.44;4907556;28;97998;-71
2024/02/09 12:43:35;;;;;;;;;;;;;;;15.97;48.68;98185.38;4901929;28;99493;-67
2024/02/09 12:46:01;;;;;;;;;;;;;;;15.98;48.60;98192.38;4922726;28;98408;-70
2024/02/09 12:48:28;;;;;;;;;;;;;;;15.99;48.58;98183.09;4953135;28;98154;-67
2024/02/09 12:50:56;;;;;;;;;;;;;;;16.01;48.59;98186.25;4934275;28;98613;-67
2024/02/09 12:53:22;;;;;;;;;;;;;;;16.05;48.56;98189.81;4945693;28;99619;-67
2024/02/09 12:55:49;;;;;;;;;;;;;;;16.09;48.64;98183.31;4954093;28;98554;-67
2024/02/09 12:58:16;;;;;;;;;;;;;;;16.14;48.66;98177.56;4958944;28;98852;-67
2024/02/09 13:00:43;;;;;;;;;;;;;;;16.19;48.59;98182.75;4940525;28;109368;-67
2024/02/09 13:03:10;;;;;;;;;;;;;;;16.18;48.56;98185.81;4948936;28;98873;-67
2024/02/09 13:05:36;;;;;;;;;;;;;;;16.18;48.65;98183.09;4947270;28;98590;-67
2024/02/09 13:08:02;;;;;;;;;;;;;;;16.19;48.66;98179.22;4937529;28;99302;-70
2024/02/09 13:10:28;;;;;;;;;;;;;;;16.24;48.42;98178.94;4934307;28;100783;-70
2024/02/09 13:12:54;;;;;;;;;;;;;;;16.32;48.69;98179.88;4935427;28;98452;-70
2024/02/09 13:15:21;;;;;;;;;;;;;;;16.36;48.58;98180.72;4920566;28;125738;-68
2024/02/09 13:17:47;;;;;;;;;;;;;;;16.40;48.47;98176.91;4921625;28;99163;-70
2024/02/09 13:20:17;;;;;;;;;;;;;;;16.47;48.54;98178.19;4941346;28;98033;-67
2024/02/09 13:22:44;;;;;;;;;;;;;;;16.52;48.63;98167.78;4963183;27;99828;-70
2024/02/09 13:25:13;;;;;;;;;;;;;;;16.61;48.61;98175.72;4939531;28;99980;-67
2024/02/09 13:27:42;;;;;;;;;;;;;;;16.63;48.63;98173.44;4906056;28;98648;-70
2024/02/09 13:30:09;;;;;;;;;;;;;;;16.62;48.62;98178.09;4906268;28;98127;-70
2024/02/09 13:32:36;;;;;;;;;;;;;;;16.62;48.71;98185.44;4918481;28;98482;-70
2024/02/09 13:35:10;;;;;;;;;;;;;;;16.61;48.69;98184.66;4939404;28;99950;-70
2024/02/09 13:37:44;;;;;;;;;;;;;;;16.58;48.96;98176.44;4942167;28;99433;-67
2024/02/09 13:40:15;;;;;;;;;;;;;;;16.55;48.73;98185.34;4908577;28;103562;-67
2024/02/09 13:42:47;;;;;;;;;;;;;;;16.50;48.70;98183.69;4939188;28;98273;-67
2024/02/09 13:45:14;;;;;;;;;;;;;;;16.51;48.81;98187.97;4938031;28;98857;-70
2024/02/09 13:47:43;;;;;;;;;;;;;;;16.48;48.72;98183.25;4934602;28;98306;-67
2024/02/09 13:50:11;;;;;;;;;;;;;;;16.43;48.80;98184.34;4965560;27;98597;-70
2024/02/09 13:52:45;;;;;;;;;;;;;;;16.34;48.91;98183.78;4964084;27;98315;-70
2024/02/09 13:55:14;;;;;;;;;;;;;;;16.30;48.97;98190.28;4954588;28;98156;-65
2024/02/09 13:57:48;;;;;;;;;;;;;;;16.30;48.78;98179.41;4905650;28;99547;-70
2024/02/09 14:00:18;;;;;;;;;;;;;;;16.25;49.07;98182.44;4938649;28;98594;-70
2024/02/09 14:02:48;;;;;;;;;;;;;;;16.16;49.00;98185.38;4936345;28;99423;-66
2024/02/09 14:05:15;;;;;;;;;;;;;;;16.08;49.07;98191.84;4906309;28;99073;-70
2024/02/09 14:07:42;;;;;;;;;;;;;;;16.03;49.12;98186.66;4922682;28;97964;-66
2024/02/09 14:10:11;;;;;;;;;;;;;;;16.04;49.01;98180.88;4930930;28;98078;-70
2024/02/09 14:12:38;;;;;;;;;;;;;;;16.05;49.08;98187.09;4939764;28;98212;-70
2024/02/09 14:15:05;;;;;;;;;;;;;;;16.00;49.18;98176.53;4964527;27;97966;-66
2024/02/09 14:17:31;;;;;;;;;;;;;;;15.95;49.19;98177.59;4937325;28;98196;-66
2024/02/09 14:19:58;;;;;;;;;;;;;;;15.92;49.02;98181.81;4947066;28;98555;-70
2024/02/09 14:22:24;;;;;;;;;;;;;;;15.87;49.30;98175.88;4951776;28;98073;-66
2024/02/09 14:24:51;;;;;;;;;;;;;;;15.77;49.25;98190.03;4962766;28;99032;-66
2024/02/09 14:27:17;;;;;;;;;;;;;;;15.67;49.37;98194.09;4943329;28;98987;-66
2024/02/09 14:29:45;;;;;;;;;;;;;;;15.57;49.39;98189.19;4950778;28;98169;-66
2024/02/09 14:32:12;;;;;;;;;;;;;;;15.49;49.60;98182.03;4953011;28;99630;-66
2024/02/09 14:34:40;;;;;;;;;;;;;;;15.42;49.42;98188.09;4951809;28;98401;-70